Time;durP1;ratioP1;P1;durP2;ratioP2;P2;SDS_P1;SDS_P2;PMS_P1;PMS_P2;Temp;Humidity;BMP_temperature;BMP_pressure;BME280_temperature;BME280_humidity;BME280_pressure;Samples;Min_cycle;Max_cycle;Signal;HPM_P1;HPM_P2
2022/11/29 00:01:11;;;;;;;85.12;33.33;;;;;;;-1.41;87.59;98901.93;1691553;84;25447;-78
2022/11/29 00:03:38;;;;;;;71.10;32.05;;;;;;;-1.42;87.46;98899.75;1691903;84;27442;-79
2022/11/29 00:06:07;;;;;;;81.08;33.33;;;;;;;-1.43;87.44;98902.16;1691467;84;25986;-74
2022/11/29 00:08:35;;;;;;;73.35;30.90;;;;;;;-1.43;87.37;98895.44;1691929;84;25720;-68
2022/11/29 00:11:08;;;;;;;82.17;34.10;;;;;;;-1.43;87.64;98897.30;1691784;84;25870;-79
2022/11/29 00:13:35;;;;;;;73.57;31.75;;;;;;;-1.44;87.55;98898.35;1691596;84;25643;-73
2022/11/29 00:16:09;;;;;;;75.12;33.18;;;;;;;-1.45;87.50;98902.90;1691702;84;29571;-79
2022/11/29 00:18:35;;;;;;;58.58;23.50;;;;;;;-1.46;87.50;98897.75;1691859;84;25857;-74
2022/11/29 00:21:09;;;;;;;66.65;27.42;;;;;;;-1.50;87.54;98893.34;1691630;84;25597;-75
2022/11/29 00:23:36;;;;;;;65.42;27.73;;;;;;;-1.54;87.79;98893.52;1691527;84;25724;-78
2022/11/29 00:26:06;;;;;;;71.33;32.45;;;;;;;-1.54;87.74;98891.66;1691567;84;25702;-71
2022/11/29 00:28:34;;;;;;;67.55;30.12;;;;;;;-1.55;87.77;98894.57;1692063;84;27481;-79
2022/11/29 00:31:00;;;;;;;69.58;31.50;;;;;;;-1.59;87.93;98892.84;1691915;84;25719;-75
2022/11/29 00:33:27;;;;;;;62.17;28.17;;;;;;;-1.59;87.90;98893.36;1691708;84;25435;-75
2022/11/29 00:35:54;;;;;;;68.47;30.10;;;;;;;-1.62;88.30;98893.84;1691648;84;25935;-75
2022/11/29 00:38:21;;;;;;;64.75;27.07;;;;;;;-1.62;88.22;98895.19;1691852;84;25630;-71
2022/11/29 00:40:51;;;;;;;56.33;23.45;;;;;;;-1.62;88.37;98897.88;1691528;84;27495;-73
2022/11/29 00:43:18;;;;;;;63.63;28.30;;;;;;;-1.61;88.19;98899.00;1691973;84;25757;-78
2022/11/29 00:45:44;;;;;;;65.55;29.87;;;;;;;-1.63;88.21;98893.02;1691909;84;25549;-77
2022/11/29 00:48:11;;;;;;;63.20;29.27;;;;;;;-1.62;88.09;98903.25;1691624;84;25729;-79
2022/11/29 00:50:37;;;;;;;67.95;30.43;;;;;;;-1.63;88.00;98893.02;1691538;84;25452;-77
2022/11/29 00:53:04;;;;;;;63.78;26.37;;;;;;;-1.64;88.10;98894.08;1691522;84;27455;-75
2022/11/29 00:55:30;;;;;;;65.65;28.10;;;;;;;-1.64;88.04;98895.42;1692099;84;25717;-78
2022/11/29 00:57:57;;;;;;;67.80;28.98;;;;;;;-1.64;87.98;98900.80;1691657;84;25628;-80
2022/11/29 01:00:24;;;;;;;68.83;28.65;;;;;;;-1.65;87.89;98897.79;1691750;84;25797;-75
2022/11/29 01:02:51;;;;;;;58.73;26.25;;;;;;;-1.65;87.87;98903.99;1691602;84;25681;-77
2022/11/29 01:05:18;;;;;;;61.33;26.17;;;;;;;-1.70;88.10;98897.13;1691635;84;27541;-80
2022/11/29 01:07:44;;;;;;;61.30;26.60;;;;;;;-1.72;88.20;98897.06;1691627;84;25472;-82
2022/11/29 01:10:11;;;;;;;59.60;25.50;;;;;;;-1.74;88.23;98891.08;1691639;84;25626;-76
2022/11/29 01:12:39;;;;;;;61.63;27.93;;;;;;;-1.75;88.17;98889.45;1691633;84;25727;-71
2022/11/29 01:15:07;;;;;;;55.08;24.27;;;;;;;-1.78;88.09;98890.19;1692074;84;25745;-80
2022/11/29 01:17:38;;;;;;;58.55;25.32;;;;;;;-1.82;88.36;98885.50;1691926;84;27405;-81
2022/11/29 01:20:09;;;;;;;61.33;25.05;;;;;;;-1.87;88.36;98884.86;1691825;84;25718;-83
2022/11/29 01:22:37;;;;;;;60.23;26.35;;;;;;;-1.88;88.57;98885.89;1692251;84;25510;-83
2022/11/29 01:25:06;;;;;;;58.70;27.60;;;;;;;-1.91;88.77;98892.54;1691608;84;25657;-83
2022/11/29 01:27:33;;;;;;;64.12;28.73;;;;;;;-1.94;88.83;98892.16;1692070;84;25628;-78
2022/11/29 01:29:59;;;;;;;48.98;20.48;;;;;;;-1.94;88.81;98892.99;1691714;84;28429;-78
2022/11/29 01:32:27;;;;;;;61.05;27.35;;;;;;;-1.94;88.93;98889.47;1691583;84;25696;-72
2022/11/29 01:34:53;;;;;;;58.40;26.73;;;;;;;-1.91;88.82;98886.34;1691664;84;25633;-82
2022/11/29 01:37:19;;;;;;;60.35;26.97;;;;;;;-1.91;88.79;98885.83;1684533;84;25797;-76
2022/11/29 01:39:46;;;;;;;59.63;26.80;;;;;;;-1.89;88.76;98882.91;1666816;86;25646;-81
2022/11/29 01:42:14;;;;;;;52.78;24.27;;;;;;;-1.89;88.69;98874.85;1666497;86;27456;-73
2022/11/29 01:45:22;;;;;;;52.62;24.67;;;;;;;-1.88;88.79;98877.83;1666722;85;25488;-83
2022/11/29 01:47:53;;;;;;;50.58;23.25;;;;;;;-1.91;88.88;98876.42;1666459;86;25806;-81
2022/11/29 01:50:20;;;;;;;61.15;25.45;;;;;;;-1.90;89.12;98881.28;1667001;85;25736;-76
2022/11/29 01:52:47;;;;;;;44.13;19.77;;;;;;;-1.91;89.30;98887.68;1666710;84;25461;-72
2022/11/29 01:55:14;;;;;;;56.70;26.12;;;;;;;-1.92;89.15;98876.13;1666799;86;27386;-77
2022/11/29 01:57:41;;;;;;;57.40;25.62;;;;;;;-1.91;89.04;98884.99;1666411;86;25639;-81
2022/11/29 02:00:13;;;;;;;57.67;25.95;;;;;;;-1.90;88.91;98881.28;1666944;86;25738;-81
2022/11/29 02:02:44;;;;;;;59.50;25.68;;;;;;;-1.87;88.82;98884.03;1666982;85;25692;-74
2022/11/29 02:05:13;;;;;;;;;;;;;;;-1.91;88.69;98875.59;1668899;85;25711;-76
2022/11/29 02:07:45;;;;;;;50.98;23.52;;;;;;;-1.93;88.67;98879.05;1666914;86;27576;-78
2022/11/29 02:10:13;;;;;;;55.10;24.45;;;;;;;-1.94;88.73;98882.76;1666888;86;25453;-82
2022/11/29 02:13:04;;;;;;;59.50;27.10;;;;;;;-1.95;88.60;98884.64;1666733;85;25695;-81
2022/11/29 02:15:56;;;;;;;56.30;26.87;;;;;;;-1.95;88.63;98887.84;1665472;86;25772;-83
2022/11/29 02:18:39;;;;;;;62.85;27.37;;;;;;;-1.94;88.58;98888.96;1666582;84;25665;-83
2022/11/29 02:21:20;;;;;;;59.42;27.48;;;;;;;-1.96;88.47;98891.04;1665944;84;27552;-74
2022/11/29 02:24:15;;;;;;;55.48;25.88;;;;;;;-1.96;88.40;98884.88;1660168;86;25454;-82
2022/11/29 02:27:28;;;;;;;66.72;30.37;;;;;;;-1.99;88.38;98892.83;1666766;86;25695;-81
2022/11/29 02:30:25;;;;;;;64.40;28.62;;;;;;;-2.00;88.36;98895.23;1666481;86;25783;-82
2022/11/29 02:33:09;;;;;;;65.22;29.12;;;;;;;-1.98;88.23;98890.98;1666559;86;25737;-79
2022/11/29 02:36:01;;;;;;;61.08;26.80;;;;;;;-1.99;88.19;98892.03;1666544;86;27475;-73
2022/11/29 02:39:08;;;;;;;65.55;28.45;;;;;;;-2.04;88.21;98890.02;1667992;84;25695;-80
2022/11/29 02:42:01;;;;;;;65.50;28.35;;;;;;;-2.03;88.24;98893.00;1669370;85;25611;-80
2022/11/29 02:44:50;;;;;;;59.93;24.98;;;;;;;-2.06;88.34;98891.59;1667367;86;27893;-83
2022/11/29 02:47:38;;;;;;;58.50;27.40;;;;;;;-2.07;88.29;98891.27;1667233;86;25714;-74
2022/11/29 02:50:59;;;;;;;68.22;28.38;;;;;;;-2.09;88.22;98893.38;1669171;85;27460;-83
2022/11/29 02:53:34;;;;;;;56.40;27.97;;;;;;;-2.11;88.26;98895.97;1669322;86;25646;-79
2022/11/29 02:56:26;;;;;;;68.25;29.27;;;;;;;-2.11;88.28;98903.52;1667976;86;25488;-73
2022/11/29 02:59:04;;;;;;;64.20;28.65;;;;;;;-2.14;88.33;98902.62;1667294;86;27798;-80
2022/11/29 03:02:00;;;;;;;66.42;28.62;;;;;;;-2.15;88.29;98903.67;1669727;86;25450;-75
2022/11/29 03:04:49;;;;;;;61.58;28.38;;;;;;;-2.15;88.36;98902.33;1669308;85;28176;-70
2022/11/29 03:07:33;;;;;;;57.27;25.85;;;;;;;-2.16;88.58;98909.55;1669083;86;27232;-81
2022/11/29 03:10:24;;;;;;;60.40;27.22;;;;;;;-2.16;88.71;98905.52;1669020;86;25595;-74
2022/11/29 03:12:53;;;;;;;60.05;28.02;;;;;;;-2.18;88.69;98902.77;1669227;85;27829;-69
2022/11/29 03:15:28;;;;;;;62.98;28.20;;;;;;;-2.18;88.69;98900.92;1669528;86;25430;-82
2022/11/29 03:18:29;;;;;;;68.57;26.65;;;;;;;-2.17;88.67;98903.89;1669508;85;28148;-73
2022/11/29 03:21:41;;;;;;;62.67;27.60;;;;;;;-2.18;88.81;98911.66;1668326;86;25674;-82
2022/11/29 03:24:12;;;;;;;57.58;26.55;;;;;;;-2.18;88.66;98911.66;1669102;85;25756;-71
2022/11/29 03:26:47;;;;;;;57.83;27.05;;;;;;;-2.19;88.70;98904.63;1667808;86;25930;-82
2022/11/29 03:29:24;;;;;;;58.80;25.95;;;;;;;-2.18;88.68;98908.98;1669815;85;25556;-79
2022/11/29 03:32:12;;;;;;;61.92;27.55;;;;;;;-2.18;88.67;98914.34;1669081;86;27371;-67
2022/11/29 03:35:07;;;;;;;55.83;26.12;;;;;;;-2.16;88.63;98919.49;1669029;86;25682;-74
2022/11/29 03:38:23;;;;;;;58.95;27.77;;;;;;;-2.17;88.61;98917.83;1669524;84;25575;-83
2022/11/29 03:41:01;;;;;;;64.65;28.32;;;;;;;-2.19;88.44;98922.08;1665233;86;27875;-81
2022/11/29 03:43:44;;;;;;;58.30;26.00;;;;;;;-2.19;88.45;98926.11;1667787;86;25496;-80
2022/11/29 03:46:48;;;;;;;53.68;24.15;;;;;;;-2.19;88.40;98924.77;1669234;86;28277;-72
2022/11/29 03:49:32;;;;;;;56.80;26.37;;;;;;;-2.21;88.37;98924.19;1651918;86;25829;-80
2022/11/29 03:52:24;;;;;;;58.30;26.80;;;;;;;-2.22;88.37;98927.09;1687939;85;25679;-79
2022/11/29 03:55:21;;;;;;;54.60;24.85;;;;;;;-2.22;88.45;98930.58;1652009;86;26462;-75
2022/11/29 03:58:16;;;;;;;54.70;24.85;;;;;;;-2.21;88.53;98936.78;1687070;85;25618;-72
2022/11/29 04:00:50;;;;;;;39.38;17.90;;;;;;;-2.21;88.36;98940.81;1687590;85;26751;-72
2022/11/29 04:03:58;;;;;;;49.40;23.55;;;;;;;-2.23;88.57;98940.20;1679221;85;25906;-80
2022/11/29 04:06:59;;;;;;;51.88;23.65;;;;;;;-2.24;88.66;98940.74;1651561;86;25777;-78
2022/11/29 04:10:21;;;;;;;49.30;23.15;;;;;;;-2.23;88.58;98939.69;1686036;85;25836;-78
2022/11/29 04:12:56;;;;;;;45.95;21.82;;;;;;;-2.22;88.36;98940.52;1651913;86;25750;-69
2022/11/29 04:15:39;;;;;;;53.25;23.87;;;;;;;-2.25;88.57;98941.77;1685324;85;28125;-76
2022/11/29 04:18:45;;;;;;;53.68;23.80;;;;;;;-2.24;88.54;98943.42;1686310;85;26775;-73
2022/11/29 04:21:19;;;;;;;48.98;22.67;;;;;;;-2.22;88.59;98942.66;1652419;86;25548;-76
2022/11/29 04:24:20;;;;;;;55.30;24.77;;;;;;;-2.21;88.65;98940.30;1696808;84;25703;-79
2022/11/29 04:27:44;;;;;;;54.13;23.57;;;;;;;-2.19;88.60;98942.22;1673667;85;25853;-78
2022/11/29 04:30:22;;;;;;;46.58;21.77;;;;;;;-2.18;88.74;98947.91;1673948;85;27395;-70
2022/11/29 04:33:02;;;;;;;54.55;24.55;;;;;;;-2.16;88.54;98947.69;1673662;85;25581;-71
2022/11/29 04:36:03;;;;;;;45.73;21.30;;;;;;;-2.15;88.47;98958.72;1674139;85;25748;-71
2022/11/29 04:39:02;;;;;;;48.25;23.85;;;;;;;-2.13;88.47;98951.78;1639239;86;25578;-79
2022/11/29 04:41:34;;;;;;;53.63;24.77;;;;;;;-2.13;88.34;98951.24;1581671;90;25765;-75
2022/11/29 04:44:32;;;;;;;53.38;24.12;;;;;;;-2.14;88.24;98957.66;1614783;88;28315;-80
2022/11/29 04:47:34;;;;;;;50.17;23.40;;;;;;;-2.16;88.21;98949.83;1614260;88;25753;-78
2022/11/29 04:50:15;;;;;;;;;;;;;;;-2.17;88.12;98958.11;1584366;90;25678;-73
2022/11/29 04:53:14;;;;;;;49.40;21.75;;;;;;;-2.19;88.12;98956.19;1581833;90;25739;-68
2022/11/29 04:56:08;;;;;;;51.48;24.52;;;;;;;-2.25;88.18;98960.56;1582387;90;25588;-70
2022/11/29 04:59:03;;;;;;;50.85;24.50;;;;;;;-2.30;88.11;98958.53;1582246;90;27538;-76
2022/11/29 05:01:44;;;;;;;60.05;25.60;;;;;;;-2.31;88.09;98965.47;1580803;89;27197;-74
2022/11/29 05:04:31;;;;;;;53.58;25.62;;;;;;;-2.32;88.22;98967.35;1528811;93;25799;-69
2022/11/29 05:07:11;;;;;;;57.85;25.95;;;;;;;-2.31;88.22;98975.70;1528846;93;25804;-80
2022/11/29 05:09:58;;;;;;;54.07;25.50;;;;;;;-2.31;88.16;98977.03;1545646;92;25824;-71
2022/11/29 05:12:38;;;;;;;59.48;27.87;;;;;;;-2.32;88.05;98978.09;1545359;92;28429;-78
2022/11/29 05:15:31;;;;;;;63.63;30.10;;;;;;;-2.32;88.03;98985.31;1587842;87;27196;-78
2022/11/29 05:18:36;;;;;;;63.00;29.65;;;;;;;-2.31;88.11;98982.92;1639582;87;25723;-80
2022/11/29 05:21:28;;;;;;;66.10;30.75;;;;;;;-2.33;88.00;98986.36;1639765;87;25735;-73
2022/11/29 05:24:09;;;;;;;61.45;25.97;;;;;;;-2.34;87.97;98986.87;1647654;87;25787;-72
2022/11/29 05:26:59;;;;;;;68.70;32.93;;;;;;;-2.37;87.89;98989.17;1606058;89;29575;-72
2022/11/29 05:29:52;;;;;;;66.77;30.77;;;;;;;-2.43;88.03;98990.88;1607338;89;25740;-77
2022/11/29 05:32:27;;;;;;;66.92;29.15;;;;;;;-2.42;87.99;98990.66;1647160;86;25671;-68
2022/11/29 05:35:20;;;;;;;57.43;26.95;;;;;;;-2.42;87.87;98996.56;1625418;87;26663;-81
2022/11/29 05:37:54;;;;;;;57.73;26.37;;;;;;;-2.45;87.91;98997.80;1646609;87;25824;-78
2022/11/29 05:40:53;;;;;;;58.28;27.40;;;;;;;-2.45;88.04;99007.20;1670978;85;28263;-72
2022/11/29 05:43:50;;;;;;;54.10;25.35;;;;;;;-2.45;87.93;99008.54;1670842;85;25495;-78
2022/11/29 05:46:52;;;;;;;59.03;26.77;;;;;;;-2.43;87.98;99000.27;1632331;87;25689;-74
2022/11/29 05:49:34;;;;;;;56.60;26.27;;;;;;;-2.44;87.87;99004.84;1632800;87;25747;-75
2022/11/29 05:52:23;;;;;;;54.20;25.32;;;;;;;-2.45;87.93;99006.40;1634155;87;25467;-78
2022/11/29 05:55:14;;;;;;;62.67;26.12;;;;;;;-2.46;87.91;99008.25;1636872;87;27991;-74
2022/11/29 05:57:46;;;;;;;57.67;27.30;;;;;;;-2.47;87.88;99001.25;1651105;85;25425;-76
2022/11/29 06:00:15;;;;;;;54.75;26.00;;;;;;;-2.45;87.97;99003.72;1675742;85;25614;-71
2022/11/29 06:03:10;;;;;;;56.92;26.73;;;;;;;-2.43;87.87;99006.98;1676327;85;25758;-74
2022/11/29 06:05:51;;;;;;;61.58;26.07;;;;;;;-2.42;87.79;99005.96;1676129;85;25651;-71
2022/11/29 06:08:50;;;;;;;51.05;24.72;;;;;;;-2.45;87.67;99011.23;1676131;85;27461;-72
2022/11/29 06:11:33;;;;;;;56.95;25.50;;;;;;;-2.46;87.66;99012.78;1676165;85;25488;-72
2022/11/29 06:14:33;;;;;;;51.20;24.77;;;;;;;-2.48;87.74;99021.05;1669666;85;25686;-80
2022/11/29 06:17:29;;;;;;;54.95;23.80;;;;;;;-2.46;87.88;99021.67;1706235;84;25788;-80
2022/11/29 06:20:50;;;;;;;57.38;24.07;;;;;;;-2.46;87.88;99025.70;1716130;83;25826;-78
2022/11/29 06:23:44;;;;;;;50.23;21.33;;;;;;;-2.42;87.92;99024.75;1717775;82;27388;-74
2022/11/29 06:26:50;;;;;;;53.35;21.93;;;;;;;-2.42;87.82;99021.52;1716786;83;26010;-80
2022/11/29 06:29:33;;;;;;;52.83;24.87;;;;;;;-2.41;87.95;99023.19;1716732;83;25684;-78
2022/11/29 06:32:44;;;;;;;51.68;24.98;;;;;;;-2.38;87.93;99022.43;1718364;83;25653;-81
2022/11/29 06:35:44;;;;;;;49.05;24.63;;;;;;;-2.33;87.89;99020.72;1717885;83;25756;-76
2022/11/29 06:38:26;;;;;;;55.33;24.60;;;;;;;-2.30;87.65;99023.51;1717651;83;25832;-79
2022/11/29 06:40:55;;;;;;;57.62;25.65;;;;;;;-2.30;87.57;99018.14;1717884;83;25463;-79
2022/11/29 06:43:24;;;;;;;56.28;26.60;;;;;;;-2.25;87.64;99025.53;1718067;83;25732;-79
2022/11/29 06:46:01;;;;;;;56.23;25.40;;;;;;;-2.26;87.35;99019.33;1717855;83;25745;-76
2022/11/29 06:48:37;;;;;;;50.75;24.43;;;;;;;-2.25;87.38;99027.67;1718258;83;25518;-79
2022/11/29 06:51:17;;;;;;;45.78;19.52;;;;;;;-2.23;87.33;99035.00;1717871;83;27365;-77
2022/11/29 06:54:04;;;;;;;50.57;22.60;;;;;;;-2.21;87.32;99036.12;1718211;83;25660;-80
2022/11/29 06:56:45;;;;;;;49.13;23.12;;;;;;;-2.23;87.24;99035.52;1713283;83;25634;-76
2022/11/29 06:59:44;;;;;;;46.25;22.07;;;;;;;-2.28;87.26;99036.17;1704619;83;25795;-76
2022/11/29 07:02:39;;;;;;;46.37;20.17;;;;;;;-2.25;87.39;99038.95;1706038;84;25572;-80
2022/11/29 07:05:14;;;;;;;56.35;24.60;;;;;;;-2.27;87.22;99041.32;1705638;83;27407;-73
2022/11/29 07:07:42;;;;;;;50.78;22.15;;;;;;;-2.28;87.28;99042.88;1705977;84;25612;-79
2022/11/29 07:10:16;;;;;;;50.48;23.77;;;;;;;-2.23;87.34;99047.09;1706077;84;25631;-78
2022/11/29 07:12:44;;;;;;;54.53;24.12;;;;;;;-2.20;87.04;99044.47;1706413;84;25617;-77
2022/11/29 07:15:18;;;;;;;45.30;20.37;;;;;;;-2.21;86.99;99047.70;1706482;83;25693;-79
2022/11/29 07:18:10;;;;;;;44.42;20.50;;;;;;;-2.22;87.02;99047.92;1706224;83;27563;-79
2022/11/29 07:21:07;;;;;;;43.42;20.37;;;;;;;-2.22;86.94;99057.31;1705993;83;25655;-78
2022/11/29 07:23:45;;;;;;;51.60;22.32;;;;;;;-2.23;86.85;99047.09;1706246;83;25623;-70
2022/11/29 07:26:20;;;;;;;38.48;17.70;;;;;;;-2.20;86.77;99057.39;1706139;83;25772;-68
2022/11/29 07:29:27;;;;;;;43.98;19.57;;;;;;;-2.10;86.73;99054.73;1705947;82;25714;-74
2022/11/29 07:32:35;;;;;;;65.55;24.20;;;;;;;-2.07;86.21;99057.78;1699088;84;27483;-77
2022/11/29 07:35:22;;;;;;;59.48;26.80;;;;;;;-1.96;86.38;99062.15;1698897;84;25675;-71
2022/11/29 07:38:06;;;;;;;55.65;23.73;;;;;;;-1.84;86.16;99052.84;1699437;83;25611;-68
2022/11/29 07:40:38;;;;;;;57.15;25.40;;;;;;;-1.76;85.85;99061.93;1716029;83;26328;-72
2022/11/29 07:43:33;;;;;;;56.13;26.02;;;;;;;-1.68;85.63;99063.00;1719758;83;25668;-69
2022/11/29 07:46:00;;;;;;;51.20;23.27;;;;;;;-1.61;85.45;99066.14;1719479;83;28465;-75
2022/11/29 07:48:26;;;;;;;55.73;25.40;;;;;;;-1.46;84.95;99065.77;1719842;83;25821;-68
2022/11/29 07:50:54;;;;;;;53.52;26.65;;;;;;;-1.40;84.67;99066.22;1719759;83;25979;-80
2022/11/29 07:53:22;;;;;;;49.33;20.62;;;;;;;-1.30;84.78;99062.98;1719792;83;25655;-76
2022/11/29 07:55:49;;;;;;;28.10;14.07;;;;;;;-1.18;83.96;99071.94;1719873;83;25598;-73
2022/11/29 07:58:17;;;;;;;57.20;28.12;;;;;;;-1.10;83.58;99060.59;1719738;83;27755;-77
2022/11/29 08:00:49;;;;;;;32.70;16.70;;;;;;;-1.03;83.72;99071.54;1719634;83;25513;-79
2022/11/29 08:03:15;;;;;;;59.15;26.57;;;;;;;-0.98;83.15;99074.89;1719583;83;25618;-79
2022/11/29 08:05:47;;;;;;;35.55;16.07;;;;;;;-0.82;83.88;99078.01;1719553;83;25555;-73
2022/11/29 08:08:14;;;;;;;43.00;19.92;;;;;;;-0.71;82.98;99075.90;1719644;83;25437;-78
2022/11/29 08:10:41;;;;;;;54.13;26.30;;;;;;;-0.59;82.33;99072.41;1719541;83;27820;-74
2022/11/29 08:13:07;;;;;;;41.68;21.02;;;;;;;-0.52;82.52;99081.20;1719798;83;25704;-77
2022/11/29 08:15:33;;;;;;;50.28;23.42;;;;;;;-0.40;82.66;99083.40;1719966;83;25699;-74
2022/11/29 08:18:01;;;;;;;56.33;26.05;;;;;;;-0.33;82.15;99082.48;1719831;83;25907;-77
2022/11/29 08:20:27;;;;;;;48.90;23.52;;;;;;;-0.20;82.54;99086.30;1719825;83;25669;-76
2022/11/29 08:22:57;;;;;;;44.60;22.45;;;;;;;-0.10;81.70;99084.40;1719561;83;27525;-71
2022/11/29 08:25:24;;;;;;;53.73;27.00;;;;;;;0.10;81.99;99084.06;1716426;83;25873;-71
2022/11/29 08:27:51;;;;;;;60.95;27.07;;;;;;;0.17;80.08;99075.84;1719640;83;25465;-73
2022/11/29 08:30:21;;;;;;;57.95;25.45;;;;;;;0.20;80.60;99078.63;1711516;82;26438;-70
2022/11/29 08:32:47;;;;;;;65.67;29.40;;;;;;;0.26;81.11;99075.51;1707186;83;25429;-71
2022/11/29 08:35:13;;;;;;;47.05;20.60;;;;;;;0.34;80.59;99079.17;1707626;83;28175;-70
2022/11/29 08:37:40;;;;;;;39.20;18.40;;;;;;;0.44;79.96;99083.99;1707515;84;25629;-73
2022/11/29 08:40:08;;;;;;;46.42;22.90;;;;;;;0.40;79.51;99082.28;1698174;84;25682;-70
2022/11/29 08:42:34;;;;;;;52.67;26.35;;;;;;;0.27;79.21;99080.66;1689914;84;25754;-70
2022/11/29 08:45:01;;;;;;;42.20;21.07;;;;;;;0.27;80.02;99079.84;1689947;84;25528;-71
2022/11/29 08:47:36;;;;;;;57.80;26.82;;;;;;;0.29;79.84;99081.23;1690073;84;27383;-70
2022/11/29 08:50:09;;;;;;;45.38;23.47;;;;;;;0.34;80.29;99082.70;1689593;84;25656;-70
2022/11/29 08:55:29;;;;;;;44.65;22.37;;;;;;;0.51;79.51;99087.92;1689606;84;25592;-70
2022/11/29 08:58:03;;;;;;;53.60;26.10;;;;;;;0.55;79.53;99095.27;1689806;84;25627;-70
2022/11/29 09:00:29;;;;;;;57.73;27.52;;;;;;;0.57;79.84;99089.65;1689959;84;27600;-68
2022/11/29 09:03:58;;;;;;;42.55;20.80;;;;;;;0.57;79.40;99086.43;1689819;84;25841;-68
2022/11/29 09:05:24;;;;;;;50.58;24.12;;;;;;;0.60;79.57;99095.92;1686711;84;25454;-68
2022/11/29 09:07:51;;;;;;;46.25;23.20;;;;;;;0.61;79.74;99092.19;1689478;84;25776;-68
2022/11/29 09:10:17;;;;;;;42.03;22.62;;;;;;;0.55;79.65;99087.19;1690373;84;25418;-68
2022/11/29 09:12:44;;;;;;;51.88;24.85;;;;;;;0.58;79.72;99089.95;1689552;84;27566;-68
2022/11/29 09:15:12;;;;;;;46.48;23.18;;;;;;;0.58;79.71;99088.06;1689786;84;25663;-68
2022/11/29 09:17:38;;;;;;;29.80;14.85;;;;;;;0.57;79.84;99089.65;1689795;84;25434;-68
2022/11/29 09:20:07;;;;;;;52.88;24.10;;;;;;;0.60;79.66;99093.22;1690572;83;26250;-68
2022/11/29 09:22:34;;;;;;;57.23;28.20;;;;;;;0.57;80.09;99098.57;1694619;84;26136;-68
2022/11/29 09:25:00;;;;;;;48.85;24.05;;;;;;;0.63;80.38;99096.79;1698081;84;27447;-68
2022/11/29 09:27:26;;;;;;;54.05;26.48;;;;;;;0.69;80.44;99097.74;1698146;84;25679;-68
2022/11/29 09:29:53;;;;;;;53.83;25.85;;;;;;;0.80;80.63;99093.38;1697988;84;25767;-68
2022/11/29 09:32:19;;;;;;;42.55;21.82;;;;;;;0.84;80.19;99090.49;1698196;84;25782;-67
2022/11/29 09:34:45;;;;;;;32.08;15.15;;;;;;;0.87;80.01;99089.47;1698149;84;25732;-68
2022/11/29 09:37:16;;;;;;;50.08;25.62;;;;;;;0.82;79.98;99091.25;1698468;84;27991;-67
2022/11/29 09:39:42;;;;;;;51.95;24.12;;;;;;;0.85;80.51;99091.60;1700522;83;27128;-67
2022/11/29 09:42:23;;;;;;;55.78;27.37;;;;;;;1.00;80.61;99095.14;1705526;84;25660;-67
2022/11/29 09:45:06;;;;;;;46.98;24.32;;;;;;;1.17;80.42;99092.19;1677932;85;25819;-67
2022/11/29 09:47:46;;;;;;;54.08;25.20;;;;;;;1.28;79.66;99089.16;1676958;84;25752;-67
2022/11/29 09:50:33;;;;;;;43.50;20.48;;;;;;;1.29;80.10;99092.17;1676970;85;27471;-66
2022/11/29 09:53:28;;;;;;;56.85;27.22;;;;;;;1.39;79.75;99091.00;1677848;85;26331;-66
2022/11/29 09:56:24;;;;;;;51.80;24.77;;;;;;;1.50;79.68;99087.41;1677459;84;25741;-67
2022/11/29 09:58:56;;;;;;;61.15;27.75;;;;;;;1.57;79.86;99086.44;1677474;84;26736;-67
2022/11/29 10:01:46;;;;;;;52.48;24.92;;;;;;;1.68;79.64;99086.91;1667660;85;25752;-66
2022/11/29 10:04:17;;;;;;;54.73;27.55;;;;;;;1.69;79.07;99085.84;1664474;86;27435;-66
2022/11/29 10:07:03;;;;;;;58.13;27.10;;;;;;;1.70;79.28;99089.38;1666673;85;26581;-67
2022/11/29 10:09:38;;;;;;;51.98;24.52;;;;;;;1.84;79.45;99087.17;1665736;86;25742;-66
2022/11/29 10:12:31;;;;;;;42.43;19.67;;;;;;;1.92;79.09;99084.57;1666461;86;25826;-67
2022/11/29 10:15:03;;;;;;;39.83;19.10;;;;;;;1.93;78.59;99083.53;1655365;86;25844;-66
2022/11/29 10:17:50;;;;;;;52.43;26.42;;;;;;;1.92;78.69;99085.92;1663084;85;28041;-66
2022/11/29 10:20:21;;;;;;;52.10;25.50;;;;;;;1.92;78.83;99079.16;1643684;86;25826;-67
2022/11/29 10:23:00;;;;;;;;;;;;;;;1.97;78.59;99082.79;1688962;84;25808;-68
2022/11/29 10:25:49;;;;;;;55.40;27.30;;;;;;;2.10;78.72;99088.94;1691396;84;27951;-68
2022/11/29 10:28:21;;;;;;;49.50;25.72;;;;;;;2.19;79.11;99082.02;1699016;83;25698;-68
2022/11/29 10:30:52;;;;;;;52.53;26.75;;;;;;;2.24;78.84;99088.86;1726035;83;28519;-69
2022/11/29 10:33:34;;;;;;;31.03;15.03;;;;;;;2.29;79.06;99088.13;1728839;83;25654;-68
2022/11/29 10:36:26;;;;;;;47.10;23.27;;;;;;;2.22;77.86;99082.08;1728040;83;25713;-69
2022/11/29 10:38:57;;;;;;;39.67;20.45;;;;;;;2.08;78.41;99082.94;1728517;83;25927;-69
2022/11/29 10:41:25;;;;;;;;;;;;;;;2.13;78.80;99081.68;1723234;83;25673;-68
2022/11/29 10:43:58;;;;;;;46.77;23.42;;;;;;;2.20;78.19;99078.27;1717779;83;27354;-69
2022/11/29 10:46:34;;;;;;;40.08;20.35;;;;;;;2.28;78.60;99077.55;1717799;83;25658;-68
2022/11/29 10:49:06;;;;;;;44.20;21.90;;;;;;;2.36;77.96;99077.14;1717602;83;25597;-69
2022/11/29 10:51:34;;;;;;;38.90;19.50;;;;;;;2.34;77.59;99079.27;1717977;83;25745;-69
2022/11/29 10:54:32;;;;;;;37.28;19.45;;;;;;;2.25;77.34;99076.97;1718074;83;25710;-67
2022/11/29 10:57:00;;;;;;;44.98;22.87;;;;;;;2.20;77.62;99083.67;1717816;83;27395;-71
2022/11/29 10:59:29;;;;;;;36.10;17.73;;;;;;;2.28;78.63;99078.37;1717760;83;25691;-67
2022/11/29 11:01:57;;;;;;;46.75;23.20;;;;;;;2.30;77.33;99080.84;1717723;83;25781;-67
2022/11/29 11:04:31;;;;;;;36.63;15.80;;;;;;;2.41;78.10;99079.90;1717803;83;25673;-68
2022/11/29 11:07:01;;;;;;;40.65;20.23;;;;;;;2.53;77.31;99072.22;1717599;83;25643;-72
2022/11/29 11:09:39;;;;;;;31.45;16.48;;;;;;;2.69;77.76;99077.28;1718167;83;28198;-72
2022/11/29 11:12:19;;;;;;;37.10;18.05;;;;;;;3.04;76.77;99076.09;1714203;83;26614;-70
2022/11/29 11:14:47;;;;;;;42.97;21.83;;;;;;;3.38;75.55;99079.98;1718212;83;25512;-72
2022/11/29 11:17:31;;;;;;;38.00;19.42;;;;;;;3.61;75.51;99080.74;1717685;83;25734;-69
2022/11/29 11:20:07;;;;;;;35.15;19.15;;;;;;;4.02;74.54;99084.86;1717805;83;25603;-74
2022/11/29 11:22:33;;;;;;;36.88;19.15;;;;;;;4.19;73.16;99083.89;1716155;83;25659;-72
2022/11/29 11:25:07;;;;;;;35.03;17.65;;;;;;;4.56;72.57;99086.29;1717873;83;25681;-71
2022/11/29 11:27:42;;;;;;;34.67;19.57;;;;;;;4.65;70.92;99088.78;1718093;83;25577;-72
2022/11/29 11:30:20;;;;;;;36.00;20.97;;;;;;;5.01;72.63;99085.42;1716345;83;25598;-75
2022/11/29 11:33:26;;;;;;;77.80;40.35;;;;;;;5.39;71.24;99086.61;1716810;83;25648;-77
2022/11/29 11:36:14;;;;;;;42.78;24.55;;;;;;;5.55;67.77;99082.00;1717809;83;27576;-73
2022/11/29 11:38:56;;;;;;;36.30;21.50;;;;;;;5.48;68.28;99082.81;1717607;83;25590;-76
2022/11/29 11:44:33;;;;;;;36.65;21.55;;;;;;;5.52;67.84;99082.01;1722835;83;25747;-68
2022/11/29 11:47:00;;;;;;;32.85;18.42;;;;;;;5.93;70.03;99080.39;1722830;83;25630;-73
2022/11/29 11:50:09;;;;;;;37.80;19.90;;;;;;;6.14;65.83;99081.78;1723030;83;27432;-71
2022/11/29 11:52:52;;;;;;;28.70;15.32;;;;;;;6.19;65.76;99085.05;1721248;83;25674;-76
2022/11/29 11:55:27;;;;;;;37.63;19.87;;;;;;;6.31;65.25;99082.03;1722847;83;25622;-69
2022/11/29 11:58:17;;;;;;;30.90;17.02;;;;;;;5.99;64.96;99083.38;1723079;83;26933;-68
2022/11/29 12:01:12;;;;;;;32.00;19.32;;;;;;;6.09;65.54;99083.97;1723024;83;25673;-69
2022/11/29 12:04:05;;;;;;;35.80;21.07;;;;;;;6.14;64.96;99080.42;1722580;83;27436;-73
2022/11/29 12:06:52;;;;;;;31.70;17.50;;;;;;;5.73;64.91;99087.45;1721377;83;25449;-74
2022/11/29 12:09:51;;;;;;;33.15;19.32;;;;;;;5.74;65.32;99087.75;1722094;83;26469;-75
2022/11/29 12:12:22;;;;;;;32.40;20.20;;;;;;;6.07;66.27;99079.89;1723286;83;26622;-72
2022/11/29 12:15:29;;;;;;;33.58;19.85;;;;;;;6.26;66.49;99084.22;1723328;83;25440;-68
2022/11/29 12:18:03;;;;;;;33.92;18.73;;;;;;;6.65;65.11;99082.78;1723022;83;27466;-69
2022/11/29 12:20:50;;;;;;;31.48;18.87;;;;;;;7.33;62.90;99087.92;1722902;83;25853;-70
2022/11/29 12:23:25;;;;;;;30.23;18.12;;;;;;;7.55;63.01;99087.53;1723188;83;25678;-69
2022/11/29 12:26:17;;;;;;;32.78;19.75;;;;;;;7.75;60.87;99090.64;1721196;83;25638;-73